createdAt,value
2018-03-11T00:02:08.614Z,10.82
2018-03-11T00:04:35.471Z,11.85
2018-03-11T00:07:02.373Z,20.45
2018-03-11T00:09:30.012Z,10.27
2018-03-11T00:11:56.866Z,9.63
2018-03-11T00:14:24.454Z,10.48
2018-03-11T00:16:51.331Z,11.52
2018-03-11T00:19:18.173Z,16.55
2018-03-11T00:21:45.023Z,12.00
2018-03-11T00:24:11.894Z,11.60
2018-03-11T00:26:39.494Z,13.98
2018-03-11T00:29:06.339Z,15.30
2018-03-11T00:31:33.179Z,15.43
2018-03-11T00:34:00.050Z,19.10
2018-03-11T00:36:26.870Z,14.70
2018-03-11T00:38:53.724Z,13.70
2018-03-11T00:41:20.574Z,13.70
2018-03-11T00:43:47.427Z,16.87
2018-03-11T00:46:14.306Z,15.63
2018-03-11T00:48:41.153Z,14.63
2018-03-11T00:51:08.013Z,13.55
2018-03-11T00:53:34.882Z,13.90
2018-03-11T00:56:01.768Z,15.02
2018-03-11T00:58:29.364Z,14.23
2018-03-11T01:00:56.261Z,13.45
2018-03-11T01:03:23.150Z,13.43
2018-03-11T01:05:49.986Z,12.70
2018-03-11T01:08:16.826Z,12.00
2018-03-11T01:10:43.713Z,12.25
2018-03-11T01:13:10.550Z,11.80
2018-03-11T01:15:37.451Z,14.07
2018-03-11T01:18:04.306Z,13.90
2018-03-11T01:20:31.150Z,15.23
2018-03-11T01:22:58.049Z,12.27
2018-03-11T01:25:25.638Z,12.15
2018-03-11T01:27:53.212Z,16.67
2018-03-11T01:30:20.083Z,17.73
2018-03-11T01:32:46.922Z,17.12
2018-03-11T01:35:13.764Z,12.70
2018-03-11T01:37:40.648Z,11.80
2018-03-11T01:40:07.507Z,12.07
2018-03-11T01:42:34.351Z,12.82
2018-03-11T01:45:01.218Z,11.07
2018-03-11T01:47:28.069Z,12.40
2018-03-11T01:49:54.926Z,10.15
2018-03-11T01:52:21.743Z,11.10
2018-03-11T01:54:48.630Z,9.95
2018-03-11T01:57:15.471Z,10.68
2018-03-11T01:59:42.364Z,8.88
2018-03-11T02:02:09.226Z,8.43
2018-03-11T02:04:36.108Z,8.98
2018-03-11T02:07:02.934Z,8.85
2018-03-11T02:09:29.803Z,9.25
2018-03-11T02:11:57.372Z,13.45
2018-03-11T02:14:24.207Z,11.32
2018-03-11T02:16:51.070Z,12.93
2018-03-11T02:19:17.939Z,9.90
2018-03-11T02:21:45.506Z,10.80
2018-03-11T02:24:12.376Z,10.25
2018-03-11T02:26:39.998Z,9.38
2018-03-11T02:29:06.851Z,9.90
2018-03-11T02:31:33.679Z,11.12
2018-03-11T02:34:00.547Z,11.73
2018-03-11T02:36:27.363Z,12.73
2018-03-11T02:38:54.956Z,9.98
2018-03-11T02:41:22.575Z,13.62
2018-03-11T02:43:49.435Z,14.70
2018-03-11T02:46:16.248Z,10.48
2018-03-11T02:48:43.116Z,12.27
2018-03-11T02:51:09.981Z,12.32
2018-03-11T02:53:36.827Z,13.25
2018-03-11T02:56:03.678Z,11.23
2018-03-11T02:58:31.270Z,11.43
2018-03-11T03:00:58.123Z,16.37
2018-03-11T03:03:24.959Z,13.65
2018-03-11T03:05:51.826Z,9.73
2018-03-11T03:08:18.651Z,13.48
2018-03-11T03:10:45.503Z,10.65
2018-03-11T03:13:12.365Z,11.07
2018-03-11T03:15:39.209Z,13.07
2018-03-11T03:18:06.044Z,9.52
2018-03-11T03:20:33.667Z,11.00
2018-03-11T03:23:00.508Z,10.73
2018-03-11T03:25:28.072Z,11.52
2018-03-11T03:27:54.914Z,9.75
2018-03-11T03:30:21.781Z,8.73
2018-03-11T03:32:48.667Z,10.18
2018-03-11T03:35:15.494Z,8.80
2018-03-11T03:37:42.331Z,9.93
2018-03-11T03:40:09.192Z,9.23
2018-03-11T03:42:36.014Z,10.48
2018-03-11T03:45:02.927Z,10.25
2018-03-11T03:47:29.799Z,8.65
2018-03-11T03:49:56.634Z,10.20
2018-03-11T03:52:23.486Z,11.40
2018-03-11T03:54:50.291Z,15.77
2018-03-11T03:57:17.135Z,11.85
2018-03-11T03:59:43.994Z,10.38
2018-03-11T04:02:10.822Z,9.32
2018-03-11T04:04:38.415Z,9.13
2018-03-11T04:07:05.270Z,10.25
2018-03-11T04:09:32.146Z,10.27
2018-03-11T04:11:59.011Z,10.55
2018-03-11T04:14:25.858Z,7.85
2018-03-11T04:16:52.679Z,8.63
2018-03-11T04:19:19.558Z,9.77
2018-03-11T04:21:46.386Z,8.30
2018-03-11T04:24:13.207Z,15.88
2018-03-11T04:26:40.059Z,8.00
2018-03-11T04:29:06.874Z,9.02
2018-03-11T04:31:34.463Z,9.50
2018-03-11T04:34:01.336Z,7.60
2018-03-11T04:36:28.174Z,9.02
2018-03-11T04:38:55.010Z,8.98
2018-03-11T04:41:21.875Z,8.65
2018-03-11T04:43:48.702Z,9.90
2018-03-11T04:46:15.535Z,8.23
2018-03-11T04:48:42.400Z,8.27
2018-03-11T04:51:09.263Z,10.82
2018-03-11T04:53:36.111Z,11.88
2018-03-11T04:56:03.166Z,10.13
2018-03-11T04:58:29.959Z,9.52
2018-03-11T05:00:56.783Z,10.10
2018-03-11T05:03:23.647Z,10.90
2018-03-11T05:05:50.475Z,7.87
2018-03-11T05:08:17.360Z,8.70
2018-03-11T05:10:44.199Z,8.18
2018-03-11T05:13:11.051Z,11.68
2018-03-11T05:15:37.886Z,8.75
2018-03-11T05:18:04.734Z,10.77
2018-03-11T05:20:31.570Z,8.20
2018-03-11T05:22:58.411Z,10.05
2018-03-11T05:25:25.282Z,12.27
2018-03-11T05:27:52.859Z,9.02
2018-03-11T05:30:20.446Z,8.68
2018-03-11T05:32:47.308Z,8.50
2018-03-11T05:35:14.145Z,8.80
2018-03-11T05:37:40.996Z,9.32
2018-03-11T05:40:08.010Z,9.00
2018-03-11T05:42:35.654Z,12.23
2018-03-11T05:45:03.440Z,11.82
2018-03-11T05:47:30.512Z,12.80
2018-03-11T05:49:57.490Z,17.60
2018-03-11T05:52:25.151Z,12.48
2018-03-11T05:54:52.110Z,11.98
2018-03-11T05:57:19.030Z,14.10
2018-03-11T05:59:46.048Z,12.70
2018-03-11T06:02:13.814Z,12.98
2018-03-11T06:04:41.654Z,14.35
2018-03-11T06:07:08.522Z,16.37
2018-03-11T06:09:35.430Z,20.40
2018-03-11T06:12:03.078Z,18.37
2018-03-11T06:14:30.111Z,19.08
2018-03-11T06:16:57.107Z,20.25
2018-03-11T06:19:24.051Z,16.90
2018-03-11T06:21:51.715Z,18.20
2018-03-11T06:24:18.566Z,17.95
2018-03-11T06:26:45.591Z,13.57
2018-03-11T06:29:12.510Z,16.83
2018-03-11T06:31:40.079Z,17.00
2018-03-11T06:34:07.891Z,20.75
2018-03-11T06:36:34.875Z,24.75
2018-03-11T06:39:01.683Z,19.55
2018-03-11T06:41:28.503Z,18.20
2018-03-11T06:43:55.351Z,17.95
2018-03-11T06:46:22.184Z,16.35
2018-03-11T06:48:49.746Z,17.08
2018-03-11T06:51:16.602Z,18.12
2018-03-11T06:53:43.441Z,15.88
2018-03-11T06:56:10.291Z,14.15
2018-03-11T06:58:37.150Z,14.52
2018-03-11T07:01:04.024Z,14.65
2018-03-11T07:03:31.604Z,14.13
2018-03-11T07:05:58.475Z,11.75
2018-03-11T07:08:25.295Z,15.65
2018-03-11T07:10:52.150Z,14.52
2018-03-11T07:13:19.066Z,13.48
2018-03-11T07:15:46.161Z,18.87
2018-03-11T07:18:12.996Z,20.37
2018-03-11T07:20:39.859Z,14.35
2018-03-11T07:23:06.731Z,13.27
2018-03-11T07:25:34.310Z,14.50
2018-03-11T07:28:01.200Z,15.95
2018-03-11T07:30:28.054Z,18.65
2018-03-11T07:32:55.627Z,13.88
2018-03-11T07:35:23.229Z,14.05
2018-03-11T07:37:50.420Z,14.70
2018-03-11T07:40:17.338Z,18.10
2018-03-11T07:42:44.160Z,13.73
2018-03-11T07:45:11.007Z,13.70
2018-03-11T07:47:37.882Z,18.37
2018-03-11T07:50:04.745Z,14.23
2018-03-11T07:52:31.563Z,17.80
2018-03-11T07:54:58.422Z,14.20
2018-03-11T07:57:25.259Z,14.50
2018-03-11T07:59:52.420Z,13.93
2018-03-11T08:02:19.228Z,13.77
2018-03-11T08:04:46.055Z,13.43
2018-03-11T08:07:12.986Z,13.57
2018-03-11T08:09:39.854Z,13.70
2018-03-11T08:12:06.911Z,14.67
2018-03-11T08:14:33.844Z,14.47
2018-03-11T08:17:00.702Z,16.03
2018-03-11T08:19:27.579Z,12.57
2018-03-11T08:21:54.679Z,11.93
2018-03-11T08:24:21.608Z,16.17
2018-03-11T08:26:48.456Z,13.87
2018-03-11T08:29:15.330Z,13.20
2018-03-11T08:31:42.321Z,13.23
2018-03-11T08:34:09.529Z,10.73
2018-03-11T08:36:37.356Z,11.77
2018-03-11T08:39:05.288Z,9.83
2018-03-11T08:41:32.889Z,14.43
2018-03-11T08:43:59.887Z,9.60
2018-03-11T08:46:27.640Z,12.03
2018-03-11T08:48:55.404Z,15.20
2018-03-11T08:51:22.243Z,10.17
2018-03-11T08:53:49.131Z,11.90
2018-03-11T08:56:16.855Z,12.63
2018-03-11T08:58:44.486Z,8.27
2018-03-11T09:01:11.378Z,8.73
2018-03-11T09:03:38.236Z,8.70
2018-03-11T09:06:05.974Z,7.87
2018-03-11T09:08:32.890Z,7.73
2018-03-11T09:10:59.775Z,7.50
2018-03-11T09:13:26.681Z,8.30
2018-03-11T09:15:53.597Z,8.63
2018-03-11T09:18:20.423Z,9.20
2018-03-11T09:20:47.259Z,8.00
2018-03-11T09:23:14.094Z,8.40
2018-03-11T09:25:40.935Z,10.00
2018-03-11T09:28:07.798Z,8.77
2018-03-11T09:30:35.922Z,9.77
2018-03-11T09:33:02.865Z,12.67
2018-03-11T09:35:29.710Z,9.13
2018-03-11T09:37:56.587Z,9.77
2018-03-11T09:40:23.411Z,9.00
2018-03-11T09:42:50.242Z,8.50
2018-03-11T09:45:17.104Z,10.00
2018-03-11T09:47:43.930Z,7.10
2018-03-11T09:50:10.766Z,7.60
2018-03-11T09:52:37.627Z,7.80
2018-03-11T09:55:04.515Z,8.00
2018-03-11T09:57:31.542Z,8.70
2018-03-11T09:59:58.607Z,6.47
2018-03-11T10:02:26.195Z,6.87
2018-03-11T10:04:53.036Z,7.03
2018-03-11T10:07:19.882Z,6.57
2018-03-11T10:09:47.447Z,7.30
2018-03-11T10:12:14.403Z,6.27
2018-03-11T10:14:42.346Z,6.90
2018-03-11T10:17:09.223Z,6.83
2018-03-11T10:19:36.055Z,5.33
2018-03-11T10:22:02.938Z,6.50
2018-03-11T10:24:29.742Z,7.20
2018-03-11T10:26:56.796Z,8.57
2018-03-11T10:29:23.693Z,6.60
2018-03-11T10:31:50.531Z,6.37
2018-03-11T10:34:17.547Z,9.73
2018-03-11T10:36:44.436Z,6.77
2018-03-11T10:39:12.014Z,7.53
2018-03-11T10:41:39.087Z,7.20
2018-03-11T10:44:06.012Z,8.70
2018-03-11T10:46:32.979Z,8.50
2018-03-11T10:48:59.911Z,5.27
2018-03-11T10:51:26.722Z,6.50
2018-03-11T10:53:54.318Z,4.67
2018-03-11T10:56:21.329Z,4.50
2018-03-11T10:58:48.235Z,6.80
2018-03-11T11:01:15.958Z,9.17
2018-03-11T11:03:48.848Z,5.40
2018-03-11T11:06:15.726Z,5.17
2018-03-11T11:08:43.334Z,4.80
2018-03-11T11:11:10.177Z,4.80
2018-03-11T11:13:37.091Z,7.23
2018-03-11T11:16:03.926Z,6.93
2018-03-11T11:18:30.957Z,6.23
2018-03-11T11:20:58.608Z,4.80
2018-03-11T11:23:25.441Z,8.53
2018-03-11T11:25:52.523Z,6.03
2018-03-11T11:28:19.443Z,5.53
2018-03-11T11:30:46.271Z,5.00
2018-03-11T11:33:13.150Z,4.83
2018-03-11T11:35:40.904Z,4.20
2018-03-11T11:38:07.950Z,3.47
2018-03-11T11:40:35.045Z,4.57
2018-03-11T11:43:02.663Z,7.43
2018-03-11T11:45:29.508Z,4.40
2018-03-11T11:47:56.351Z,7.70
2018-03-11T11:50:23.208Z,5.10
2018-03-11T11:52:50.019Z,6.20
2018-03-11T11:55:16.827Z,7.83
2018-03-11T11:57:43.687Z,5.30
2018-03-11T12:00:10.530Z,7.97
2018-03-11T12:02:37.375Z,4.80
2018-03-11T12:05:04.247Z,4.27
2018-03-11T12:07:31.087Z,4.53
2018-03-11T12:09:58.121Z,5.30
2018-03-11T12:12:25.047Z,4.10
2018-03-11T12:14:51.871Z,4.00
2018-03-11T12:17:19.036Z,4.03
2018-03-11T12:19:46.146Z,4.20
2018-03-11T12:22:13.146Z,3.70
2018-03-11T12:24:40.063Z,2.87
2018-03-11T12:27:06.913Z,4.23
2018-03-11T12:29:33.748Z,1.80
2018-03-11T12:32:01.370Z,2.10
2018-03-11T12:34:28.323Z,3.03
2018-03-11T12:36:55.440Z,2.37
2018-03-11T12:39:22.441Z,2.47
2018-03-11T12:41:49.598Z,3.37
2018-03-11T12:44:16.461Z,2.17
2018-03-11T12:46:43.306Z,2.77
2018-03-11T12:49:10.172Z,2.13
2018-03-11T12:51:37.063Z,6.83
2018-03-11T12:54:04.230Z,4.40
2018-03-11T12:56:31.161Z,3.80
2018-03-11T12:58:58.751Z,2.10
2018-03-11T13:01:25.634Z,1.63
2018-03-11T13:03:52.466Z,1.87
2018-03-11T13:06:19.391Z,2.47
2018-03-11T13:08:46.207Z,2.80
2018-03-11T13:11:13.038Z,2.43
2018-03-11T13:13:39.906Z,1.60
2018-03-11T13:16:06.747Z,1.97
2018-03-11T13:18:33.619Z,2.40
2018-03-11T13:21:08.316Z,2.20
2018-03-11T13:23:35.205Z,2.00
2018-03-11T13:26:02.791Z,4.40
2018-03-11T13:28:41.834Z,2.53
2018-03-11T13:31:08.707Z,3.90
2018-03-11T13:33:47.867Z,1.83
2018-03-11T13:36:15.370Z,3.17
2018-03-11T13:38:54.759Z,1.97
2018-03-11T13:41:21.683Z,1.60
2018-03-11T13:43:48.506Z,3.07
2018-03-11T13:46:27.494Z,1.97
2018-03-11T13:48:55.119Z,2.17
2018-03-11T13:51:34.094Z,4.13
2018-03-11T13:54:00.966Z,4.30
2018-03-11T13:56:27.777Z,3.00
2018-03-11T13:58:54.650Z,1.80
2018-03-11T14:01:21.482Z,2.00
2018-03-11T14:03:48.326Z,1.57
2018-03-11T14:06:15.173Z,2.53
2018-03-11T14:08:42.003Z,4.73
2018-03-11T14:11:08.880Z,2.80
2018-03-11T14:13:35.762Z,4.20
2018-03-11T14:16:03.370Z,2.07
2018-03-11T14:18:30.207Z,2.10
2018-03-11T14:20:57.983Z,5.83
2018-03-11T14:23:24.851Z,2.67
2018-03-11T14:25:51.698Z,3.33
2018-03-11T14:28:18.634Z,2.40
2018-03-11T14:30:45.494Z,2.60
2018-03-11T14:33:12.342Z,1.57
2018-03-11T14:35:39.185Z,1.43
2018-03-11T14:38:06.787Z,1.60
2018-03-11T14:40:33.611Z,2.73
2018-03-11T14:43:00.522Z,2.10
2018-03-11T14:45:27.381Z,1.70
2018-03-11T14:47:54.247Z,2.40
2018-03-11T14:50:21.860Z,2.73
2018-03-11T14:52:49.515Z,3.87
2018-03-11T14:55:16.371Z,2.80
2018-03-11T14:57:43.515Z,3.40
2018-03-11T15:00:10.672Z,2.67
2018-03-11T15:02:38.301Z,3.50
2018-03-11T15:05:05.475Z,3.00
2018-03-11T15:07:32.322Z,2.47
2018-03-11T15:09:59.936Z,2.07
2018-03-11T15:12:26.784Z,3.13
2018-03-11T15:14:53.671Z,2.40
2018-03-11T15:17:20.507Z,5.37
2018-03-11T15:19:47.339Z,3.47
2018-03-11T15:22:14.226Z,3.40
2018-03-11T15:24:41.811Z,2.93
2018-03-11T15:27:08.659Z,3.90
2018-03-11T15:29:35.532Z,3.37
2018-03-11T15:32:02.427Z,2.33
2018-03-11T15:34:29.263Z,4.53
2018-03-11T15:36:56.164Z,2.80
2018-03-11T15:39:23.026Z,4.73
2018-03-11T15:41:49.862Z,3.67
2018-03-11T15:44:16.715Z,2.60
2018-03-11T15:46:43.530Z,3.53
2018-03-11T15:49:10.380Z,2.80
2018-03-11T15:51:37.227Z,2.93
2018-03-11T15:54:04.076Z,3.13
2018-03-11T15:56:30.926Z,2.60
2018-03-11T15:58:57.779Z,5.10
2018-03-11T16:01:25.358Z,5.50
2018-03-11T16:03:52.186Z,2.70
2018-03-11T16:06:19.091Z,1.70
2018-03-11T16:08:45.930Z,3.03
2018-03-11T16:11:12.936Z,2.00
2018-03-11T16:13:39.896Z,2.73
2018-03-11T16:16:06.722Z,2.90
2018-03-11T16:18:33.542Z,3.07
2018-03-11T16:21:01.174Z,2.03
2018-03-11T16:23:28.018Z,3.77
2018-03-11T16:25:54.962Z,6.03
2018-03-11T16:28:22.562Z,1.80
2018-03-11T16:30:49.722Z,3.40
2018-03-11T16:33:16.604Z,3.20
2018-03-11T16:35:43.526Z,1.90
2018-03-11T16:38:10.687Z,3.20
2018-03-11T16:40:38.359Z,2.20
2018-03-11T16:43:06.311Z,2.83
2018-03-11T16:45:33.908Z,4.13
2018-03-11T16:48:00.810Z,3.73
2018-03-11T16:50:27.967Z,4.20
2018-03-11T16:52:55.002Z,4.77
2018-03-11T16:55:21.833Z,2.60
2018-03-11T16:57:48.854Z,4.47
2018-03-11T17:00:15.989Z,3.10
2018-03-11T17:02:43.671Z,4.97
2018-03-11T17:05:10.686Z,3.40
2018-03-11T17:07:37.602Z,2.00
2018-03-11T17:10:04.644Z,4.90
2018-03-11T17:12:31.541Z,6.17
2018-03-11T17:14:59.341Z,4.80
2018-03-11T17:17:26.219Z,3.87
2018-03-11T17:19:53.083Z,5.67
2018-03-11T17:22:19.924Z,3.57
2018-03-11T17:24:46.777Z,3.17
2018-03-11T17:27:13.831Z,5.13
2018-03-11T17:29:42.447Z,4.30
2018-03-11T17:32:09.417Z,4.00
2018-03-11T17:34:37.194Z,4.80
2018-03-11T17:37:05.578Z,3.30
2018-03-11T17:39:32.575Z,5.13
2018-03-11T17:42:00.311Z,4.80
2018-03-11T17:44:27.235Z,5.47
2018-03-11T17:46:54.119Z,4.97
2018-03-11T17:49:21.111Z,4.20
2018-03-11T17:51:48.023Z,7.23
2018-03-11T17:54:14.914Z,4.73
2018-03-11T17:56:41.858Z,8.37
2018-03-11T17:59:08.998Z,4.60
2018-03-11T18:01:37.216Z,9.80
2018-03-11T18:04:04.590Z,7.00
2018-03-11T18:06:31.747Z,8.20
2018-03-11T18:08:58.815Z,5.23
2018-03-11T18:11:25.686Z,9.83
2018-03-11T18:13:52.760Z,8.43
2018-03-11T18:16:20.886Z,7.83
2018-03-11T18:18:48.071Z,7.77
2018-03-11T18:21:15.283Z,10.20
2018-03-11T18:23:42.164Z,8.30
2018-03-11T18:26:09.066Z,12.97
2018-03-11T18:28:35.907Z,8.80
2018-03-11T18:31:02.836Z,10.80
2018-03-11T18:33:29.695Z,16.77
2018-03-11T18:35:56.574Z,15.40
2018-03-11T18:38:23.471Z,18.57
2018-03-11T18:40:50.294Z,17.80
2018-03-11T18:43:17.862Z,25.23
2018-03-11T18:45:44.738Z,31.53
2018-03-11T18:48:11.587Z,27.33
2018-03-11T18:50:38.427Z,30.00
2018-03-11T18:53:05.276Z,44.43
2018-03-11T18:55:32.418Z,36.73
2018-03-11T18:58:00.127Z,33.40
2018-03-11T19:00:26.999Z,32.07
2018-03-11T19:02:54.063Z,29.50
2018-03-11T19:05:21.919Z,28.80
2018-03-11T19:07:48.795Z,26.30
2018-03-11T19:10:15.900Z,23.47
2018-03-11T19:12:42.964Z,35.13
2018-03-11T19:15:10.443Z,21.67
2018-03-11T19:17:37.511Z,24.97
2018-03-11T19:20:04.355Z,21.30
2018-03-11T19:22:31.183Z,22.40
2018-03-11T19:24:58.719Z,20.67
2018-03-11T19:27:25.575Z,21.83
2018-03-11T19:29:52.419Z,21.30
2018-03-11T19:32:19.295Z,18.83
2018-03-11T19:34:47.007Z,18.70
2018-03-11T19:37:14.147Z,17.33
2018-03-11T19:39:41.079Z,16.30
2018-03-11T19:42:07.868Z,19.70
2018-03-11T19:44:36.582Z,15.03
2018-03-11T19:47:03.482Z,14.47
2018-03-11T19:49:30.486Z,16.07
2018-03-11T19:51:57.326Z,15.83
2018-03-11T19:54:24.181Z,12.63
2018-03-11T19:56:51.047Z,11.77
2018-03-11T19:59:17.883Z,12.83
2018-03-11T20:01:44.736Z,13.10
2018-03-11T20:04:11.590Z,17.13
2018-03-11T20:06:41.070Z,14.70
2018-03-11T20:09:08.248Z,14.67
2018-03-11T20:11:35.784Z,15.30
2018-03-11T20:14:02.887Z,18.20
2018-03-11T20:16:30.666Z,20.50
2018-03-11T20:18:57.659Z,17.77
2018-03-11T20:21:24.552Z,17.43
2018-03-11T20:23:52.256Z,23.30
2018-03-11T20:26:19.252Z,23.33
2018-03-11T20:28:46.138Z,22.40
2018-03-11T20:31:13.143Z,29.47
2018-03-11T20:33:40.102Z,27.40
2018-03-11T20:36:08.031Z,29.67
2018-03-11T20:38:34.989Z,28.87
2018-03-11T20:41:02.631Z,30.30
2018-03-11T20:43:30.526Z,26.60
2018-03-11T20:45:57.524Z,26.50
2018-03-11T20:48:25.121Z,28.93
2018-03-11T20:50:51.963Z,23.50
2018-03-11T20:53:18.832Z,26.37
2018-03-11T20:55:47.114Z,24.40
2018-03-11T20:58:14.691Z,21.60
2018-03-11T21:00:41.742Z,23.97
2018-03-11T21:03:09.431Z,23.73
2018-03-11T21:05:36.458Z,20.40
2018-03-11T21:08:03.327Z,20.07
2018-03-11T21:10:30.215Z,24.23
2018-03-11T21:12:57.124Z,25.10
2018-03-11T21:15:23.920Z,27.90
2018-03-11T21:17:50.782Z,30.07
2018-03-11T21:20:17.615Z,26.43
2018-03-11T21:22:44.447Z,24.83
2018-03-11T21:25:12.105Z,28.10
2018-03-11T21:27:38.954Z,32.77
2018-03-11T21:30:06.183Z,28.33
2018-03-11T21:32:33.754Z,29.73
2018-03-11T21:35:00.598Z,30.27
2018-03-11T21:37:28.183Z,27.20
2018-03-11T21:39:55.055Z,27.40
2018-03-11T21:42:21.962Z,22.70
2018-03-11T21:44:48.798Z,26.37
2018-03-11T21:47:16.447Z,25.27
2018-03-11T21:49:43.305Z,21.40
2018-03-11T21:52:10.914Z,25.40
2018-03-11T21:54:38.489Z,19.13
2018-03-11T21:57:05.377Z,25.07
2018-03-11T21:59:33.064Z,27.90
2018-03-11T22:01:59.915Z,24.60
2018-03-11T22:04:27.071Z,22.43
2018-03-11T22:06:54.715Z,17.87
2018-03-11T22:09:21.590Z,21.47
2018-03-11T22:11:48.675Z,20.30
2018-03-11T22:14:15.966Z,17.23
2018-03-11T22:16:43.379Z,18.57
2018-03-11T22:19:10.398Z,18.57
2018-03-11T22:21:37.238Z,16.77
2018-03-11T22:24:04.322Z,19.50
2018-03-11T22:26:31.251Z,16.90
2018-03-11T22:28:58.080Z,14.90
2018-03-11T22:31:24.966Z,18.17
2018-03-11T22:33:52.526Z,16.10
2018-03-11T22:36:19.349Z,18.60
2018-03-11T22:38:46.198Z,21.70
2018-03-11T22:41:13.035Z,19.07
2018-03-11T22:43:39.887Z,19.27
2018-03-11T22:46:07.447Z,19.27
2018-03-11T22:48:34.282Z,18.60
2018-03-11T22:51:01.126Z,18.00
2018-03-11T22:53:27.982Z,17.17
2018-03-11T22:55:54.810Z,20.97
2018-03-11T22:58:21.630Z,15.90
2018-03-11T23:00:48.487Z,19.03
2018-03-11T23:03:15.348Z,16.53
2018-03-11T23:05:42.924Z,15.63
2018-03-11T23:08:09.807Z,16.00
2018-03-11T23:10:38.299Z,15.10
2018-03-11T23:13:05.147Z,20.13
2018-03-11T23:15:31.960Z,17.00
2018-03-11T23:17:58.844Z,18.37
2018-03-11T23:20:25.682Z,16.90
2018-03-11T23:22:52.539Z,18.30
2018-03-11T23:25:19.364Z,21.47
2018-03-11T23:27:46.214Z,18.20
2018-03-11T23:30:13.064Z,18.00
2018-03-11T23:32:39.903Z,16.27
2018-03-11T23:35:06.721Z,17.23
2018-03-11T23:37:33.579Z,18.73
2018-03-11T23:40:00.403Z,17.60
2018-03-11T23:42:27.227Z,19.27
2018-03-11T23:44:54.099Z,17.60
2018-03-11T23:47:20.945Z,18.20
2018-03-11T23:49:47.753Z,20.60
2018-03-11T23:52:14.654Z,16.33
2018-03-11T23:54:42.226Z,17.60
2018-03-11T23:57:09.083Z,16.53
2018-03-11T23:59:35.945Z,15.77
